Redgranite, WI (54970)

4:14 AM CDT on July 27, 2016 (GMT -0500)
Mt. Morris Township | | Change Station

Elev 912 ft 44.08 °N, 89.21 °W | Updated 2 minutes ago

Clear
Clear
66.7 °F
Feels Like 66.7 °F
N
0.0
Wind Variable Wind from East

Today
High -- | Low -- °F
--% Chance of Precip.
Yesterday
High -- | Low -- °F
Precip. -- in
Pressure 30.02 in
Visibility 10.0 miles
Clouds Clear
Dew Point 66 °F
Humidity 99%
Rainfall 0.00 in
Snow Depth Not available.
5:39 AM 8:25 PM
Last Quarter, 45% visible
METAR KY50 270856Z AUTO 00000KT 10SM CLR 19/18 A2999 RMK AO2 SLP165 6//// T01890183 56007
Pressure 30.02 in
Visibility 10.0 miles
Clouds Clear
Dew Point 66 °F
Humidity 99%
Rainfall 0.00 in
Snow Depth Not available.
5:39 AM 8:25 PM
Last Quarter, 45% visible
METAR KY50 270856Z AUTO 00000KT 10SM CLR 19/18 A2999 RMK AO2 SLP165 6//// T01890183 56007

10-Day Weather Forecast

Almanac

Astronomy

Jul. 27, 2016 Rise Set
Actual Time
Civil Twilight
Nautical Twilight
Astronomical Twilight
Moon
Length of Visible Light
Length of Day
Tomorrow will be .
, % of the Moon is Illuminated

Today's Extremes

State Highs State Lows

Community

WunderPhotos

Upload Photos

1,927,818 photos uploaded!

WunderBlog® & News

Nearby

Air Quality

  Air Quality AQ Index Pollutant
Not available.

Snow Depth

Station Depth Elevation

Earthquake Activity

City Distance Mag. Time & Date
Minimum magnitude displayed is 2.5.

Coastal Water Temperatures

Place Temperature

Stations

Nearby Weather Stations

Station Location Temp. Windchill Dew Point Humidity Wind Precip. Elev Updated Type
                   

Watches & Warnings

There are currently no watches in effect.